sensor_id;sensor_type;location;lat;lon;timestamp;P1;durP1;ratioP1;P2;durP2;ratioP2
19691;SDS011;42748;50.016;19.890;2023-05-09T00:01:47;38.60;;;19.37;;
19691;SDS011;42748;50.016;19.890;2023-05-09T00:04:15;36.43;;;19.23;;
19691;SDS011;42748;50.016;19.890;2023-05-09T00:06:43;40.63;;;20.87;;
19691;SDS011;42748;50.016;19.890;2023-05-09T00:09:11;45.67;;;22.50;;
19691;SDS011;42748;50.016;19.890;2023-05-09T00:11:38;46.33;;;22.73;;
19691;SDS011;42748;50.016;19.890;2023-05-09T00:14:06;47.73;;;24.00;;
19691;SDS011;42748;50.016;19.890;2023-05-09T00:16:34;46.77;;;25.03;;
19691;SDS011;42748;50.016;19.890;2023-05-09T00:19:02;46.70;;;24.83;;
19691;SDS011;42748;50.016;19.890;2023-05-09T00:21:30;50.90;;;26.97;;
19691;SDS011;42748;50.016;19.890;2023-05-09T00:23:57;49.57;;;26.60;;
19691;SDS011;42748;50.016;19.890;2023-05-09T00:26:26;41.17;;;23.50;;
19691;SDS011;42748;50.016;19.890;2023-05-09T00:28:53;37.83;;;21.83;;
19691;SDS011;42748;50.016;19.890;2023-05-09T00:31:20;41.37;;;21.33;;
19691;SDS011;42748;50.016;19.890;2023-05-09T00:33:48;34.60;;;19.83;;
19691;SDS011;42748;50.016;19.890;2023-05-09T00:36:15;39.00;;;19.93;;
19691;SDS011;42748;50.016;19.890;2023-05-09T00:38:43;41.63;;;20.83;;
19691;SDS011;42748;50.016;19.890;2023-05-09T00:41:10;39.87;;;20.20;;
19691;SDS011;42748;50.016;19.890;2023-05-09T00:43:38;34.23;;;18.73;;
19691;SDS011;42748;50.016;19.890;2023-05-09T00:46:06;36.17;;;18.87;;
19691;SDS011;42748;50.016;19.890;2023-05-09T00:48:35;36.10;;;19.67;;
19691;SDS011;42748;50.016;19.890;2023-05-09T00:51:03;36.83;;;19.97;;
19691;SDS011;42748;50.016;19.890;2023-05-09T00:53:30;37.27;;;19.20;;
19691;SDS011;42748;50.016;19.890;2023-05-09T00:55:59;37.40;;;19.17;;
19691;SDS011;42748;50.016;19.890;2023-05-09T00:58:26;32.90;;;18.83;;
19691;SDS011;42748;50.016;19.890;2023-05-09T01:00:54;38.63;;;20.33;;
19691;SDS011;42748;50.016;19.890;2023-05-09T01:03:21;36.97;;;19.30;;
19691;SDS011;42748;50.016;19.890;2023-05-09T01:08:49;37.83;;;19.67;;
19691;SDS011;42748;50.016;19.890;2023-05-09T01:11:36;37.97;;;20.30;;
19691;SDS011;42748;50.016;19.890;2023-05-09T01:14:17;40.37;;;20.57;;
19691;SDS011;42748;50.016;19.890;2023-05-09T01:16:48;38.67;;;19.73;;
19691;SDS011;42748;50.016;19.890;2023-05-09T01:19:32;36.90;;;20.80;;
19691;SDS011;42748;50.016;19.890;2023-05-09T01:22:03;37.60;;;19.63;;
19691;SDS011;42748;50.016;19.890;2023-05-09T01:24:48;39.33;;;19.87;;
19691;SDS011;42748;50.016;19.890;2023-05-09T01:30:10;42.20;;;19.97;;
19691;SDS011;42748;50.016;19.890;2023-05-09T01:32:39;42.50;;;21.83;;
19691;SDS011;42748;50.016;19.890;2023-05-09T01:35:09;39.57;;;22.03;;
19691;SDS011;42748;50.016;19.890;2023-05-09T01:37:40;43.27;;;22.93;;
19691;SDS011;42748;50.016;19.890;2023-05-09T01:40:13;41.80;;;22.60;;
19691;SDS011;42748;50.016;19.890;2023-05-09T01:42:42;46.93;;;23.40;;
19691;SDS011;42748;50.016;19.890;2023-05-09T01:45:11;42.87;;;23.20;;
19691;SDS011;42748;50.016;19.890;2023-05-09T01:47:40;41.63;;;22.53;;
19691;SDS011;42748;50.016;19.890;2023-05-09T01:50:08;43.10;;;23.20;;
19691;SDS011;42748;50.016;19.890;2023-05-09T01:52:37;42.40;;;22.57;;
19691;SDS011;42748;50.016;19.890;2023-05-09T01:55:06;40.03;;;22.40;;
19691;SDS011;42748;50.016;19.890;2023-05-09T01:57:34;42.07;;;22.50;;
19691;SDS011;42748;50.016;19.890;2023-05-09T02:00:03;43.87;;;22.30;;
19691;SDS011;42748;50.016;19.890;2023-05-09T02:02:38;41.83;;;21.90;;
19691;SDS011;42748;50.016;19.890;2023-05-09T02:05:07;41.77;;;20.87;;
19691;SDS011;42748;50.016;19.890;2023-05-09T02:07:35;39.53;;;21.80;;
19691;SDS011;42748;50.016;19.890;2023-05-09T02:10:04;41.90;;;22.07;;
19691;SDS011;42748;50.016;19.890;2023-05-09T02:12:32;39.67;;;20.90;;
19691;SDS011;42748;50.016;19.890;2023-05-09T02:15:00;42.70;;;21.30;;
19691;SDS011;42748;50.016;19.890;2023-05-09T02:17:29;40.73;;;21.17;;
19691;SDS011;42748;50.016;19.890;2023-05-09T02:19:57;47.07;;;22.67;;
19691;SDS011;42748;50.016;19.890;2023-05-09T02:22:25;45.23;;;22.60;;
19691;SDS011;42748;50.016;19.890;2023-05-09T02:24:52;42.73;;;22.70;;
19691;SDS011;42748;50.016;19.890;2023-05-09T02:27:20;42.63;;;22.87;;
19691;SDS011;42748;50.016;19.890;2023-05-09T02:29:48;40.30;;;21.97;;
19691;SDS011;42748;50.016;19.890;2023-05-09T02:32:21;43.10;;;22.63;;
19691;SDS011;42748;50.016;19.890;2023-05-09T02:34:51;48.77;;;22.77;;
19691;SDS011;42748;50.016;19.890;2023-05-09T02:37:18;45.37;;;23.37;;
19691;SDS011;42748;50.016;19.890;2023-05-09T02:39:46;44.27;;;22.63;;
19691;SDS011;42748;50.016;19.890;2023-05-09T02:42:18;44.07;;;23.47;;
19691;SDS011;42748;50.016;19.890;2023-05-09T02:44:47;41.30;;;23.17;;
19691;SDS011;42748;50.016;19.890;2023-05-09T02:47:14;45.30;;;23.47;;
19691;SDS011;42748;50.016;19.890;2023-05-09T02:49:42;40.80;;;22.50;;
19691;SDS011;42748;50.016;19.890;2023-05-09T02:52:10;39.83;;;21.77;;
19691;SDS011;42748;50.016;19.890;2023-05-09T02:54:38;42.17;;;21.67;;
19691;SDS011;42748;50.016;19.890;2023-05-09T02:57:06;48.80;;;23.00;;
19691;SDS011;42748;50.016;19.890;2023-05-09T02:59:33;45.23;;;23.07;;
19691;SDS011;42748;50.016;19.890;2023-05-09T03:02:01;44.90;;;22.10;;
19691;SDS011;42748;50.016;19.890;2023-05-09T03:04:29;42.47;;;22.93;;
19691;SDS011;42748;50.016;19.890;2023-05-09T03:06:57;46.20;;;23.20;;
19691;SDS011;42748;50.016;19.890;2023-05-09T03:09:29;43.30;;;21.70;;
19691;SDS011;42748;50.016;19.890;2023-05-09T03:11:57;44.03;;;22.47;;
19691;SDS011;42748;50.016;19.890;2023-05-09T03:14:24;45.07;;;23.17;;
19691;SDS011;42748;50.016;19.890;2023-05-09T03:16:53;41.50;;;22.57;;
19691;SDS011;42748;50.016;19.890;2023-05-09T03:19:29;41.27;;;22.93;;
19691;SDS011;42748;50.016;19.890;2023-05-09T03:21:57;43.33;;;22.77;;
19691;SDS011;42748;50.016;19.890;2023-05-09T03:24:26;44.53;;;22.50;;
19691;SDS011;42748;50.016;19.890;2023-05-09T03:26:56;44.90;;;22.37;;
19691;SDS011;42748;50.016;19.890;2023-05-09T03:29:24;43.77;;;22.97;;
19691;SDS011;42748;50.016;19.890;2023-05-09T03:31:52;46.63;;;23.17;;
19691;SDS011;42748;50.016;19.890;2023-05-09T03:34:20;41.83;;;22.10;;
19691;SDS011;42748;50.016;19.890;2023-05-09T03:36:47;44.70;;;23.77;;
19691;SDS011;42748;50.016;19.890;2023-05-09T03:39:14;49.17;;;22.70;;
19691;SDS011;42748;50.016;19.890;2023-05-09T03:41:45;44.13;;;22.87;;
19691;SDS011;42748;50.016;19.890;2023-05-09T03:44:14;42.27;;;22.30;;
19691;SDS011;42748;50.016;19.890;2023-05-09T03:46:41;41.73;;;22.03;;
19691;SDS011;42748;50.016;19.890;2023-05-09T03:49:09;40.63;;;22.53;;
19691;SDS011;42748;50.016;19.890;2023-05-09T03:51:36;41.03;;;21.40;;
19691;SDS011;42748;50.016;19.890;2023-05-09T03:54:11;43.03;;;22.03;;
19691;SDS011;42748;50.016;19.890;2023-05-09T03:56:39;47.60;;;22.17;;
19691;SDS011;42748;50.016;19.890;2023-05-09T03:59:07;40.37;;;20.23;;
19691;SDS011;42748;50.016;19.890;2023-05-09T04:01:35;43.83;;;21.70;;
19691;SDS011;42748;50.016;19.890;2023-05-09T04:04:06;36.77;;;20.87;;
19691;SDS011;42748;50.016;19.890;2023-05-09T04:06:34;41.17;;;22.00;;
19691;SDS011;42748;50.016;19.890;2023-05-09T04:09:05;39.50;;;21.60;;
19691;SDS011;42748;50.016;19.890;2023-05-09T04:11:33;41.30;;;20.37;;
19691;SDS011;42748;50.016;19.890;2023-05-09T04:14:01;38.27;;;19.87;;
19691;SDS011;42748;50.016;19.890;2023-05-09T04:16:34;32.13;;;17.97;;
19691;SDS011;42748;50.016;19.890;2023-05-09T04:19:02;34.13;;;18.03;;
19691;SDS011;42748;50.016;19.890;2023-05-09T04:21:30;34.03;;;17.53;;
19691;SDS011;42748;50.016;19.890;2023-05-09T04:24:00;36.93;;;17.30;;
19691;SDS011;42748;50.016;19.890;2023-05-09T04:26:33;34.93;;;18.90;;
19691;SDS011;42748;50.016;19.890;2023-05-09T04:29:06;32.07;;;17.90;;
19691;SDS011;42748;50.016;19.890;2023-05-09T04:31:34;34.33;;;18.00;;
19691;SDS011;42748;50.016;19.890;2023-05-09T04:34:03;31.43;;;17.40;;
19691;SDS011;42748;50.016;19.890;2023-05-09T04:36:33;31.03;;;16.30;;
19691;SDS011;42748;50.016;19.890;2023-05-09T04:39:01;32.67;;;16.05;;
19691;SDS011;42748;50.016;19.890;2023-05-09T04:41:32;28.90;;;16.40;;
19691;SDS011;42748;50.016;19.890;2023-05-09T04:44:00;27.90;;;16.02;;
19691;SDS011;42748;50.016;19.890;2023-05-09T04:46:28;30.73;;;16.17;;
19691;SDS011;42748;50.016;19.890;2023-05-09T04:48:56;28.85;;;16.58;;
19691;SDS011;42748;50.016;19.890;2023-05-09T04:51:24;29.45;;;16.02;;
19691;SDS011;42748;50.016;19.890;2023-05-09T04:53:52;31.00;;;16.60;;
19691;SDS011;42748;50.016;19.890;2023-05-09T04:56:24;29.65;;;15.80;;
19691;SDS011;42748;50.016;19.890;2023-05-09T04:58:51;33.65;;;16.42;;
19691;SDS011;42748;50.016;19.890;2023-05-09T05:01:19;31.70;;;15.93;;
19691;SDS011;42748;50.016;19.890;2023-05-09T05:03:47;30.67;;;15.52;;
19691;SDS011;42748;50.016;19.890;2023-05-09T05:06:15;27.75;;;15.60;;
19691;SDS011;42748;50.016;19.890;2023-05-09T05:08:42;29.00;;;15.38;;
19691;SDS011;42748;50.016;19.890;2023-05-09T05:11:10;27.23;;;15.02;;
19691;SDS011;42748;50.016;19.890;2023-05-09T05:13:39;27.30;;;14.77;;
19691;SDS011;42748;50.016;19.890;2023-05-09T05:16:06;24.25;;;14.82;;
19691;SDS011;42748;50.016;19.890;2023-05-09T05:18:34;24.85;;;15.20;;
19691;SDS011;42748;50.016;19.890;2023-05-09T05:21:02;25.15;;;14.85;;
19691;SDS011;42748;50.016;19.890;2023-05-09T05:23:30;28.58;;;15.80;;
19691;SDS011;42748;50.016;19.890;2023-05-09T05:25:57;26.90;;;15.15;;
19691;SDS011;42748;50.016;19.890;2023-05-09T05:28:26;24.65;;;15.35;;
19691;SDS011;42748;50.016;19.890;2023-05-09T05:30:53;24.88;;;15.65;;
19691;SDS011;42748;50.016;19.890;2023-05-09T05:33:21;25.98;;;15.85;;
19691;SDS011;42748;50.016;19.890;2023-05-09T05:35:49;30.15;;;16.02;;
19691;SDS011;42748;50.016;19.890;2023-05-09T05:38:17;25.75;;;15.35;;
19691;SDS011;42748;50.016;19.890;2023-05-09T05:40:48;24.02;;;14.40;;
19691;SDS011;42748;50.016;19.890;2023-05-09T05:43:16;30.45;;;15.45;;
19691;SDS011;42748;50.016;19.890;2023-05-09T05:45:44;25.67;;;14.82;;
19691;SDS011;42748;50.016;19.890;2023-05-09T05:48:15;26.48;;;15.50;;
19691;SDS011;42748;50.016;19.890;2023-05-09T05:50:44;27.88;;;15.48;;
19691;SDS011;42748;50.016;19.890;2023-05-09T05:53:15;26.08;;;14.48;;
19691;SDS011;42748;50.016;19.890;2023-05-09T05:55:42;25.33;;;14.35;;
19691;SDS011;42748;50.016;19.890;2023-05-09T05:58:12;28.10;;;14.73;;
19691;SDS011;42748;50.016;19.890;2023-05-09T06:00:39;23.48;;;14.38;;
19691;SDS011;42748;50.016;19.890;2023-05-09T06:03:07;24.38;;;15.27;;
19691;SDS011;42748;50.016;19.890;2023-05-09T06:05:45;22.63;;;14.02;;
19691;SDS011;42748;50.016;19.890;2023-05-09T06:08:14;23.67;;;13.80;;
19691;SDS011;42748;50.016;19.890;2023-05-09T06:10:41;27.20;;;14.60;;
19691;SDS011;42748;50.016;19.890;2023-05-09T06:13:09;28.63;;;14.02;;
19691;SDS011;42748;50.016;19.890;2023-05-09T06:15:41;21.95;;;13.23;;
19691;SDS011;42748;50.016;19.890;2023-05-09T06:18:09;21.63;;;13.93;;
19691;SDS011;42748;50.016;19.890;2023-05-09T06:20:36;21.73;;;13.68;;
19691;SDS011;42748;50.016;19.890;2023-05-09T06:23:04;33.45;;;14.30;;
19691;SDS011;42748;50.016;19.890;2023-05-09T06:25:31;22.95;;;13.88;;
19691;SDS011;42748;50.016;19.890;2023-05-09T06:27:59;22.70;;;13.00;;
19691;SDS011;42748;50.016;19.890;2023-05-09T06:30:26;23.27;;;13.55;;
19691;SDS011;42748;50.016;19.890;2023-05-09T06:32:54;28.42;;;14.15;;
19691;SDS011;42748;50.016;19.890;2023-05-09T06:35:23;25.65;;;14.32;;
19691;SDS011;42748;50.016;19.890;2023-05-09T06:37:51;23.80;;;13.95;;
19691;SDS011;42748;50.016;19.890;2023-05-09T06:40:18;24.50;;;13.18;;
19691;SDS011;42748;50.016;19.890;2023-05-09T06:42:46;19.92;;;12.63;;
19691;SDS011;42748;50.016;19.890;2023-05-09T06:45:14;22.45;;;12.57;;
19691;SDS011;42748;50.016;19.890;2023-05-09T06:47:42;20.85;;;12.13;;
19691;SDS011;42748;50.016;19.890;2023-05-09T06:50:09;22.45;;;12.27;;
19691;SDS011;42748;50.016;19.890;2023-05-09T06:52:37;19.88;;;12.02;;
19691;SDS011;42748;50.016;19.890;2023-05-09T06:55:04;20.48;;;12.45;;
19691;SDS011;42748;50.016;19.890;2023-05-09T06:57:32;23.65;;;12.32;;
19691;SDS011;42748;50.016;19.890;2023-05-09T07:00:00;19.17;;;11.40;;
19691;SDS011;42748;50.016;19.890;2023-05-09T07:02:27;21.70;;;11.52;;
19691;SDS011;42748;50.016;19.890;2023-05-09T07:04:55;20.10;;;11.57;;
19691;SDS011;42748;50.016;19.890;2023-05-09T07:07:22;18.88;;;10.73;;
19691;SDS011;42748;50.016;19.890;2023-05-09T07:09:50;18.48;;;9.70;;
19691;SDS011;42748;50.016;19.890;2023-05-09T07:12:26;19.45;;;10.15;;
19691;SDS011;42748;50.016;19.890;2023-05-09T07:14:55;17.65;;;9.63;;
19691;SDS011;42748;50.016;19.890;2023-05-09T07:17:23;17.23;;;9.20;;
19691;SDS011;42748;50.016;19.890;2023-05-09T07:19:51;16.42;;;9.32;;
19691;SDS011;42748;50.016;19.890;2023-05-09T07:22:18;17.92;;;9.15;;
19691;SDS011;42748;50.016;19.890;2023-05-09T07:24:46;19.58;;;9.63;;
19691;SDS011;42748;50.016;19.890;2023-05-09T07:27:13;15.88;;;9.68;;
19691;SDS011;42748;50.016;19.890;2023-05-09T07:29:43;16.10;;;8.52;;
19691;SDS011;42748;50.016;19.890;2023-05-09T07:32:11;14.02;;;8.30;;
19691;SDS011;42748;50.016;19.890;2023-05-09T07:34:38;13.93;;;8.23;;
19691;SDS011;42748;50.016;19.890;2023-05-09T07:37:06;17.95;;;8.57;;
19691;SDS011;42748;50.016;19.890;2023-05-09T07:39:33;14.50;;;8.57;;
19691;SDS011;42748;50.016;19.890;2023-05-09T07:42:00;17.30;;;7.78;;
19691;SDS011;42748;50.016;19.890;2023-05-09T07:44:29;12.00;;;7.40;;
19691;SDS011;42748;50.016;19.890;2023-05-09T07:46:56;15.18;;;7.28;;
19691;SDS011;42748;50.016;19.890;2023-05-09T07:49:28;15.68;;;7.32;;
19691;SDS011;42748;50.016;19.890;2023-05-09T07:51:55;13.73;;;6.45;;
19691;SDS011;42748;50.016;19.890;2023-05-09T07:54:23;15.20;;;7.25;;
19691;SDS011;42748;50.016;19.890;2023-05-09T07:56:50;9.85;;;6.80;;
19691;SDS011;42748;50.016;19.890;2023-05-09T07:59:18;11.73;;;6.43;;
19691;SDS011;42748;50.016;19.890;2023-05-09T08:01:45;12.82;;;6.45;;
19691;SDS011;42748;50.016;19.890;2023-05-09T08:04:13;12.15;;;6.07;;
19691;SDS011;42748;50.016;19.890;2023-05-09T08:06:40;11.70;;;6.07;;
19691;SDS011;42748;50.016;19.890;2023-05-09T08:09:08;11.13;;;6.63;;
19691;SDS011;42748;50.016;19.890;2023-05-09T08:11:35;12.60;;;6.35;;
19691;SDS011;42748;50.016;19.890;2023-05-09T08:14:03;10.05;;;5.82;;
19691;SDS011;42748;50.016;19.890;2023-05-09T08:16:30;12.32;;;6.00;;
19691;SDS011;42748;50.016;19.890;2023-05-09T08:18:58;10.95;;;5.28;;
19691;SDS011;42748;50.016;19.890;2023-05-09T08:21:25;11.05;;;5.53;;
19691;SDS011;42748;50.016;19.890;2023-05-09T08:23:53;8.68;;;4.90;;
19691;SDS011;42748;50.016;19.890;2023-05-09T08:26:21;12.68;;;5.50;;
19691;SDS011;42748;50.016;19.890;2023-05-09T08:28:49;14.60;;;6.50;;
19691;SDS011;42748;50.016;19.890;2023-05-09T08:31:16;13.15;;;6.10;;
19691;SDS011;42748;50.016;19.890;2023-05-09T08:33:44;10.98;;;5.88;;
19691;SDS011;42748;50.016;19.890;2023-05-09T08:36:11;11.77;;;5.55;;
19691;SDS011;42748;50.016;19.890;2023-05-09T08:38:38;12.13;;;5.53;;
19691;SDS011;42748;50.016;19.890;2023-05-09T08:41:06;13.75;;;6.00;;
19691;SDS011;42748;50.016;19.890;2023-05-09T08:43:34;10.63;;;5.97;;
19691;SDS011;42748;50.016;19.890;2023-05-09T08:46:08;11.77;;;5.65;;
19691;SDS011;42748;50.016;19.890;2023-05-09T08:48:36;12.82;;;5.72;;
19691;SDS011;42748;50.016;19.890;2023-05-09T08:51:05;10.05;;;5.18;;
19691;SDS011;42748;50.016;19.890;2023-05-09T08:53:33;12.43;;;5.10;;
19691;SDS011;42748;50.016;19.890;2023-05-09T08:56:04;10.52;;;5.35;;
19691;SDS011;42748;50.016;19.890;2023-05-09T08:58:32;10.90;;;5.10;;
19691;SDS011;42748;50.016;19.890;2023-05-09T09:01:01;9.57;;;4.90;;
19691;SDS011;42748;50.016;19.890;2023-05-09T09:03:32;9.43;;;5.03;;
19691;SDS011;42748;50.016;19.890;2023-05-09T09:05:59;10.93;;;5.03;;
19691;SDS011;42748;50.016;19.890;2023-05-09T09:08:27;10.20;;;4.60;;
19691;SDS011;42748;50.016;19.890;2023-05-09T09:10:55;7.63;;;4.32;;
19691;SDS011;42748;50.016;19.890;2023-05-09T09:13:22;10.48;;;4.75;;
19691;SDS011;42748;50.016;19.890;2023-05-09T09:15:50;7.40;;;4.63;;
19691;SDS011;42748;50.016;19.890;2023-05-09T09:18:23;6.88;;;4.80;;
19691;SDS011;42748;50.016;19.890;2023-05-09T09:21:08;27.70;;;4.78;;
19691;SDS011;42748;50.016;19.890;2023-05-09T09:23:36;8.02;;;4.65;;
19691;SDS011;42748;50.016;19.890;2023-05-09T09:26:06;7.10;;;4.28;;
19691;SDS011;42748;50.016;19.890;2023-05-09T09:28:33;5.40;;;3.72;;
19691;SDS011;42748;50.016;19.890;2023-05-09T09:31:01;8.48;;;4.22;;
19691;SDS011;42748;50.016;19.890;2023-05-09T09:33:28;8.10;;;4.30;;
19691;SDS011;42748;50.016;19.890;2023-05-09T09:35:56;7.57;;;4.25;;
19691;SDS011;42748;50.016;19.890;2023-05-09T09:38:24;8.43;;;4.65;;
19691;SDS011;42748;50.016;19.890;2023-05-09T09:40:55;9.75;;;4.40;;
19691;SDS011;42748;50.016;19.890;2023-05-09T09:43:27;7.20;;;4.13;;
19691;SDS011;42748;50.016;19.890;2023-05-09T09:45:55;7.18;;;3.70;;
19691;SDS011;42748;50.016;19.890;2023-05-09T09:48:27;8.75;;;4.40;;
19691;SDS011;42748;50.016;19.890;2023-05-09T09:50:57;7.22;;;4.25;;
19691;SDS011;42748;50.016;19.890;2023-05-09T09:53:28;8.23;;;3.92;;
19691;SDS011;42748;50.016;19.890;2023-05-09T09:55:59;12.50;;;4.78;;
19691;SDS011;42748;50.016;19.890;2023-05-09T09:58:26;6.47;;;4.20;;
19691;SDS011;42748;50.016;19.890;2023-05-09T10:01:04;12.10;;;4.80;;
19691;SDS011;42748;50.016;19.890;2023-05-09T10:03:35;7.18;;;3.90;;
19691;SDS011;42748;50.016;19.890;2023-05-09T10:06:03;5.53;;;3.80;;
19691;SDS011;42748;50.016;19.890;2023-05-09T10:08:31;7.88;;;4.65;;
19691;SDS011;42748;50.016;19.890;2023-05-09T10:10:59;8.57;;;4.18;;
19691;SDS011;42748;50.016;19.890;2023-05-09T10:13:27;9.30;;;4.45;;
19691;SDS011;42748;50.016;19.890;2023-05-09T10:15:55;9.32;;;4.22;;
19691;SDS011;42748;50.016;19.890;2023-05-09T10:18:26;9.48;;;3.75;;
19691;SDS011;42748;50.016;19.890;2023-05-09T10:20:54;7.40;;;4.68;;
19691;SDS011;42748;50.016;19.890;2023-05-09T10:23:22;5.80;;;4.05;;
19691;SDS011;42748;50.016;19.890;2023-05-09T10:25:53;7.10;;;4.05;;
19691;SDS011;42748;50.016;19.890;2023-05-09T10:28:26;6.45;;;4.10;;
19691;SDS011;42748;50.016;19.890;2023-05-09T10:33:23;7.15;;;3.90;;
19691;SDS011;42748;50.016;19.890;2023-05-09T10:35:53;10.55;;;4.40;;
19691;SDS011;42748;50.016;19.890;2023-05-09T10:38:21;6.20;;;4.05;;
19691;SDS011;42748;50.016;19.890;2023-05-09T10:40:50;7.82;;;4.20;;
19691;SDS011;42748;50.016;19.890;2023-05-09T10:43:19;6.03;;;3.80;;
19691;SDS011;42748;50.016;19.890;2023-05-09T10:45:49;8.13;;;4.05;;
19691;SDS011;42748;50.016;19.890;2023-05-09T10:48:17;5.45;;;3.72;;
19691;SDS011;42748;50.016;19.890;2023-05-09T10:50:45;6.28;;;3.33;;
19691;SDS011;42748;50.016;19.890;2023-05-09T10:53:12;5.85;;;3.50;;
19691;SDS011;42748;50.016;19.890;2023-05-09T10:55:52;6.78;;;3.67;;
19691;SDS011;42748;50.016;19.890;2023-05-09T11:00:48;8.43;;;4.30;;
19691;SDS011;42748;50.016;19.890;2023-05-09T11:03:16;7.57;;;3.90;;
19691;SDS011;42748;50.016;19.890;2023-05-09T11:05:45;5.35;;;3.70;;
19691;SDS011;42748;50.016;19.890;2023-05-09T11:08:16;5.80;;;3.63;;
19691;SDS011;42748;50.016;19.890;2023-05-09T11:10:44;5.30;;;3.40;;
19691;SDS011;42748;50.016;19.890;2023-05-09T11:13:12;5.80;;;3.28;;
19691;SDS011;42748;50.016;19.890;2023-05-09T11:18:19;5.28;;;3.60;;
19691;SDS011;42748;50.016;19.890;2023-05-09T11:20:47;5.97;;;3.92;;
19691;SDS011;42748;50.016;19.890;2023-05-09T11:23:20;6.20;;;3.80;;
19691;SDS011;42748;50.016;19.890;2023-05-09T11:25:48;5.30;;;3.75;;
19691;SDS011;42748;50.016;19.890;2023-05-09T11:28:25;6.45;;;3.10;;
19691;SDS011;42748;50.016;19.890;2023-05-09T11:31:15;7.10;;;3.63;;
19691;SDS011;42748;50.016;19.890;2023-05-09T11:33:44;6.03;;;3.70;;
19691;SDS011;42748;50.016;19.890;2023-05-09T11:36:19;9.18;;;4.20;;
19691;SDS011;42748;50.016;19.890;2023-05-09T11:41:28;6.25;;;3.65;;
19691;SDS011;42748;50.016;19.890;2023-05-09T11:43:56;6.22;;;3.35;;
19691;SDS011;42748;50.016;19.890;2023-05-09T11:46:25;5.45;;;3.25;;
19691;SDS011;42748;50.016;19.890;2023-05-09T11:48:53;9.00;;;3.20;;
19691;SDS011;42748;50.016;19.890;2023-05-09T11:51:20;4.75;;;3.03;;
19691;SDS011;42748;50.016;19.890;2023-05-09T11:53:48;5.97;;;3.30;;
19691;SDS011;42748;50.016;19.890;2023-05-09T11:56:16;8.38;;;3.20;;
19691;SDS011;42748;50.016;19.890;2023-05-09T11:58:44;5.35;;;3.10;;
19691;SDS011;42748;50.016;19.890;2023-05-09T12:01:12;6.53;;;3.35;;
19691;SDS011;42748;50.016;19.890;2023-05-09T12:03:43;5.28;;;3.35;;
19691;SDS011;42748;50.016;19.890;2023-05-09T12:06:18;5.15;;;3.28;;
19691;SDS011;42748;50.016;19.890;2023-05-09T12:08:46;4.45;;;3.42;;
19691;SDS011;42748;50.016;19.890;2023-05-09T12:11:14;6.88;;;3.47;;
19691;SDS011;42748;50.016;19.890;2023-05-09T12:13:43;4.60;;;3.30;;
19691;SDS011;42748;50.016;19.890;2023-05-09T12:16:12;14.65;;;3.38;;
19691;SDS011;42748;50.016;19.890;2023-05-09T12:18:49;6.35;;;2.92;;
19691;SDS011;42748;50.016;19.890;2023-05-09T12:21:18;4.75;;;3.00;;
19691;SDS011;42748;50.016;19.890;2023-05-09T12:23:46;5.13;;;3.30;;
19691;SDS011;42748;50.016;19.890;2023-05-09T12:26:17;11.07;;;3.28;;
19691;SDS011;42748;50.016;19.890;2023-05-09T12:28:45;7.32;;;3.10;;
19691;SDS011;42748;50.016;19.890;2023-05-09T12:31:13;7.03;;;3.38;;
19691;SDS011;42748;50.016;19.890;2023-05-09T12:33:41;5.13;;;3.25;;
19691;SDS011;42748;50.016;19.890;2023-05-09T12:36:09;4.55;;;3.00;;
19691;SDS011;42748;50.016;19.890;2023-05-09T12:38:37;4.82;;;2.95;;
19691;SDS011;42748;50.016;19.890;2023-05-09T12:43:45;4.95;;;2.95;;
19691;SDS011;42748;50.016;19.890;2023-05-09T12:46:17;3.97;;;2.80;;
19691;SDS011;42748;50.016;19.890;2023-05-09T12:48:45;5.30;;;2.85;;
19691;SDS011;42748;50.016;19.890;2023-05-09T12:51:20;5.65;;;3.10;;
19691;SDS011;42748;50.016;19.890;2023-05-09T12:53:48;5.80;;;2.80;;
19691;SDS011;42748;50.016;19.890;2023-05-09T12:56:16;7.72;;;2.92;;
19691;SDS011;42748;50.016;19.890;2023-05-09T12:58:54;6.13;;;2.88;;
19691;SDS011;42748;50.016;19.890;2023-05-09T13:01:22;4.07;;;2.80;;
19691;SDS011;42748;50.016;19.890;2023-05-09T13:04:03;6.28;;;3.25;;
19691;SDS011;42748;50.016;19.890;2023-05-09T13:06:31;5.05;;;3.00;;
19691;SDS011;42748;50.016;19.890;2023-05-09T13:08:59;5.45;;;3.22;;
19691;SDS011;42748;50.016;19.890;2023-05-09T13:11:27;4.82;;;3.30;;
19691;SDS011;42748;50.016;19.890;2023-05-09T13:13:55;4.03;;;2.88;;
19691;SDS011;42748;50.016;19.890;2023-05-09T13:16:23;4.53;;;2.80;;
19691;SDS011;42748;50.016;19.890;2023-05-09T13:18:51;4.65;;;2.90;;
19691;SDS011;42748;50.016;19.890;2023-05-09T13:21:18;4.82;;;2.60;;
19691;SDS011;42748;50.016;19.890;2023-05-09T13:23:46;6.45;;;2.85;;
19691;SDS011;42748;50.016;19.890;2023-05-09T13:26:15;7.70;;;3.35;;
19691;SDS011;42748;50.016;19.890;2023-05-09T13:28:43;6.05;;;2.97;;
19691;SDS011;42748;50.016;19.890;2023-05-09T13:31:10;6.97;;;3.20;;
19691;SDS011;42748;50.016;19.890;2023-05-09T13:33:38;4.68;;;2.97;;
19691;SDS011;42748;50.016;19.890;2023-05-09T13:36:06;4.82;;;2.90;;
19691;SDS011;42748;50.016;19.890;2023-05-09T13:38:33;4.95;;;2.80;;
19691;SDS011;42748;50.016;19.890;2023-05-09T13:41:04;5.43;;;2.70;;
19691;SDS011;42748;50.016;19.890;2023-05-09T13:43:32;4.22;;;2.88;;
19691;SDS011;42748;50.016;19.890;2023-05-09T13:46:00;4.38;;;3.00;;
19691;SDS011;42748;50.016;19.890;2023-05-09T13:48:28;4.40;;;2.55;;
19691;SDS011;42748;50.016;19.890;2023-05-09T13:50:55;7.57;;;3.15;;
19691;SDS011;42748;50.016;19.890;2023-05-09T13:53:25;4.85;;;2.72;;
19691;SDS011;42748;50.016;19.890;2023-05-09T13:55:52;5.03;;;3.25;;
19691;SDS011;42748;50.016;19.890;2023-05-09T13:58:20;6.47;;;3.00;;
19691;SDS011;42748;50.016;19.890;2023-05-09T14:00:48;4.13;;;2.90;;
19691;SDS011;42748;50.016;19.890;2023-05-09T14:03:15;5.47;;;2.47;;
19691;SDS011;42748;50.016;19.890;2023-05-09T14:05:43;5.40;;;3.00;;
19691;SDS011;42748;50.016;19.890;2023-05-09T14:08:10;4.63;;;2.92;;
19691;SDS011;42748;50.016;19.890;2023-05-09T14:10:37;8.60;;;3.15;;
19691;SDS011;42748;50.016;19.890;2023-05-09T14:13:05;4.68;;;3.00;;
19691;SDS011;42748;50.016;19.890;2023-05-09T14:15:34;4.55;;;2.88;;
19691;SDS011;42748;50.016;19.890;2023-05-09T14:18:01;3.85;;;2.70;;
19691;SDS011;42748;50.016;19.890;2023-05-09T14:20:29;4.53;;;2.85;;
19691;SDS011;42748;50.016;19.890;2023-05-09T14:22:56;6.93;;;2.70;;
19691;SDS011;42748;50.016;19.890;2023-05-09T14:25:26;4.28;;;2.97;;
19691;SDS011;42748;50.016;19.890;2023-05-09T14:27:53;6.13;;;2.78;;
19691;SDS011;42748;50.016;19.890;2023-05-09T14:30:21;4.55;;;2.78;;
19691;SDS011;42748;50.016;19.890;2023-05-09T14:32:51;5.68;;;2.72;;
19691;SDS011;42748;50.016;19.890;2023-05-09T14:35:19;7.28;;;2.72;;
19691;SDS011;42748;50.016;19.890;2023-05-09T14:37:46;4.55;;;3.00;;
19691;SDS011;42748;50.016;19.890;2023-05-09T14:40:14;4.70;;;2.50;;
19691;SDS011;42748;50.016;19.890;2023-05-09T14:42:42;5.03;;;2.60;;
19691;SDS011;42748;50.016;19.890;2023-05-09T14:45:09;5.10;;;2.80;;
19691;SDS011;42748;50.016;19.890;2023-05-09T14:47:38;4.47;;;2.60;;
19691;SDS011;42748;50.016;19.890;2023-05-09T14:50:06;4.15;;;2.63;;